Time;durP1;ratioP1;P1;durP2;ratioP2;P2;SDS_P1;SDS_P2;PMS_P1;PMS_P2;Temp;Humidity;BMP_temperature;BMP_pressure;BME280_temperature;BME280_humidity;BME280_pressure;Samples;Min_cycle;Max_cycle;Signal;HPM_P1;HPM_P2
2022/01/11 00:01:03;;;;;;;336.65;58.97;;;;;;;;;;5093526;28;20039;-45
2022/01/11 00:03:30;;;;;;;129.02;34.55;;;;;;;;;;5111519;28;20040;-46
2022/01/11 00:06:18;;;;;;;165.40;42.03;;;;;;;;;;5111807;28;20416;-46
2022/01/11 00:08:45;;;;;;;112.53;31.13;;;;;;;;;;5112512;28;20408;-45
2022/01/11 00:11:11;;;;;;;177.23;37.08;;;;;;;;;;5111804;28;20455;-45
2022/01/11 00:13:39;;;;;;;115.72;31.38;;;;;;;;;;5111735;28;20134;-47
2022/01/11 00:16:06;;;;;;;128.10;34.47;;;;;;;;;;5111951;28;20191;-48
2022/01/11 00:18:32;;;;;;;94.18;30.15;;;;;;;;;;5111319;28;20065;-45
2022/01/11 00:20:58;;;;;;;76.28;28.15;;;;;;;;;;5093226;28;20047;-45
2022/01/11 00:25:51;;;;;;;92.63;30.15;;;;;;;;;;5112037;28;20523;-45
2022/01/11 00:28:19;;;;;;;135.20;35.28;;;;;;;;;;5111719;28;20039;-46
2022/01/11 00:30:47;;;;;;;109.57;32.35;;;;;;;;;;5111933;28;20046;-47
2022/01/11 00:33:18;;;;;;;118.75;37.60;;;;;;;;;;5110818;28;20096;-46
2022/01/11 00:35:56;;;;;;;110.22;33.15;;;;;;;;;;5111664;28;20047;-46
2022/01/11 00:38:22;;;;;;;157.63;37.20;;;;;;;;;;5111808;28;20040;-45
2022/01/11 00:40:49;;;;;;;142.20;39.53;;;;;;;;;;5111611;28;20573;-46
2022/01/11 00:43:16;;;;;;;139.48;40.63;;;;;;;;;;5110570;28;20042;-46
2022/01/11 00:45:42;;;;;;;144.63;37.05;;;;;;;;;;5110727;28;20080;-49
2022/01/11 00:48:09;;;;;;;86.82;32.08;;;;;;;;;;5111789;28;20031;-47
2022/01/11 00:50:36;;;;;;;322.70;65.95;;;;;;;;;;5111273;28;20439;-49
2022/01/11 00:53:03;;;;;;;91.32;31.95;;;;;;;;;;5092627;28;20044;-47
2022/01/11 00:55:29;;;;;;;198.65;38.15;;;;;;;;;;5111896;28;20035;-46
2022/01/11 00:57:55;;;;;;;298.95;52.60;;;;;;;;;;5111877;28;20096;-48
2022/01/11 01:00:21;;;;;;;173.88;42.55;;;;;;;;;;5112072;28;20040;-48
2022/01/11 01:02:48;;;;;;;167.02;37.35;;;;;;;;;;5111520;28;20098;-48
2022/01/11 01:05:17;;;;;;;78.32;30.60;;;;;;;;;;5111286;28;20073;-49
2022/01/11 01:07:44;;;;;;;90.75;35.08;;;;;;;;;;5112029;28;20497;-44
2022/01/11 01:10:22;;;;;;;123.95;36.88;;;;;;;;;;5111967;28;20040;-47
2022/01/11 01:12:48;;;;;;;127.03;38.08;;;;;;;;;;5092836;28;20050;-48
2022/01/11 01:15:14;;;;;;;125.05;37.05;;;;;;;;;;5111718;28;20130;-47
2022/01/11 01:17:40;;;;;;;167.45;43.40;;;;;;;;;;5111767;28;20126;-49
2022/01/11 01:20:07;;;;;;;108.07;32.45;;;;;;;;;;5111960;28;20043;-47
2022/01/11 01:22:35;;;;;;;165.00;45.65;;;;;;;;;;5111869;28;20086;-47
2022/01/11 01:25:01;;;;;;;194.30;44.15;;;;;;;;;;5093494;28;20479;-46
2022/01/11 01:27:27;;;;;;;118.40;32.88;;;;;;;;;;5111945;28;20039;-48
2022/01/11 01:29:53;;;;;;;126.90;33.72;;;;;;;;;;5112074;28;20115;-47
2022/01/11 01:32:19;;;;;;;100.38;36.95;;;;;;;;;;5111638;28;20446;-46
2022/01/11 01:34:46;;;;;;;142.80;47.38;;;;;;;;;;5112065;28;20039;-47
2022/01/11 01:37:12;;;;;;;90.45;33.97;;;;;;;;;;5112013;28;20047;-47
2022/01/11 01:39:38;;;;;;;76.75;34.05;;;;;;;;;;5111786;28;20087;-44
2022/01/11 01:42:08;;;;;;;124.82;43.80;;;;;;;;;;5111324;28;20071;-47
2022/01/11 01:44:34;;;;;;;100.68;37.08;;;;;;;;;;5111240;28;20043;-47
2022/01/11 01:47:00;;;;;;;92.07;35.05;;;;;;;;;;5093643;28;20066;-47
2022/01/11 01:49:28;;;;;;;107.88;35.50;;;;;;;;;;5112003;28;20092;-48
2022/01/11 01:51:54;;;;;;;82.22;33.40;;;;;;;;;;5111136;28;20122;-46
2022/01/11 01:54:23;;;;;;;158.75;41.67;;;;;;;;;;5110944;28;20043;-47
2022/01/11 01:56:49;;;;;;;99.43;35.85;;;;;;;;;;5110851;28;20111;-46
2022/01/11 01:59:15;;;;;;;158.07;42.70;;;;;;;;;;5111268;28;20035;-47
2022/01/11 02:01:46;;;;;;;117.13;37.55;;;;;;;;;;5110542;28;20202;-49
2022/01/11 02:04:12;;;;;;;176.90;50.22;;;;;;;;;;5092713;28;20481;-48
2022/01/11 02:06:38;;;;;;;160.70;40.45;;;;;;;;;;5110609;28;20063;-48
2022/01/11 02:09:04;;;;;;;110.22;38.30;;;;;;;;;;5110561;28;20048;-47
2022/01/11 02:11:31;;;;;;;115.20;34.42;;;;;;;;;;5110051;28;20184;-47
2022/01/11 02:13:57;;;;;;;104.25;39.38;;;;;;;;;;5110716;28;20054;-47
2022/01/11 02:16:23;;;;;;;74.55;31.85;;;;;;;;;;5109655;28;20104;-47
2022/01/11 02:18:50;;;;;;;162.40;42.15;;;;;;;;;;5110622;28;20565;-47
2022/01/11 02:21:20;;;;;;;74.45;32.55;;;;;;;;;;5110031;28;20073;-50
2022/01/11 02:23:46;;;;;;;120.05;36.70;;;;;;;;;;5110659;28;20157;-48
2022/01/11 02:26:12;;;;;;;220.40;54.78;;;;;;;;;;5110512;28;20040;-50
2022/01/11 02:28:39;;;;;;;133.63;39.15;;;;;;;;;;5110250;28;20125;-50
2022/01/11 02:31:08;;;;;;;96.82;38.35;;;;;;;;;;5109930;28;20036;-48
2022/01/11 02:33:38;;;;;;;112.50;36.05;;;;;;;;;;5109988;28;20044;-48
2022/01/11 02:36:06;;;;;;;167.73;45.08;;;;;;;;;;5109876;28;20085;-49
2022/01/11 02:38:32;;;;;;;121.53;35.95;;;;;;;;;;5110785;28;20036;-48
2022/01/11 02:40:59;;;;;;;153.82;36.63;;;;;;;;;;5092368;28;20032;-47
2022/01/11 02:43:25;;;;;;;177.13;40.13;;;;;;;;;;5104638;28;20130;-46
2022/01/11 02:45:51;;;;;;;155.98;40.58;;;;;;;;;;5110840;28;20051;-47
2022/01/11 02:48:17;;;;;;;160.13;39.33;;;;;;;;;;5110773;28;20122;-49
2022/01/11 02:50:46;;;;;;;278.65;54.83;;;;;;;;;;5110560;28;20031;-47
2022/01/11 02:53:13;;;;;;;163.18;38.90;;;;;;;;;;5110510;28;20035;-46
2022/01/11 02:55:40;;;;;;;141.15;36.53;;;;;;;;;;5110761;28;20039;-46
2022/01/11 02:58:07;;;;;;;204.15;43.30;;;;;;;;;;5110683;28;20400;-46
2022/01/11 03:00:33;;;;;;;233.15;52.10;;;;;;;;;;5110709;28;20040;-46
2022/01/11 03:03:13;;;;;;;106.78;38.20;;;;;;;;;;5110515;28;20036;-46
2022/01/11 03:05:45;;;;;;;120.25;36.47;;;;;;;;;;5110408;28;20051;-46
2022/01/11 03:08:12;;;;;;;178.90;44.40;;;;;;;;;;5110469;28;20063;-44
2022/01/11 03:10:38;;;;;;;241.65;53.85;;;;;;;;;;5110287;28;20036;-50
2022/01/11 03:13:05;;;;;;;241.77;46.78;;;;;;;;;;5110384;28;20051;-46
2022/01/11 03:15:34;;;;;;;245.10;57.42;;;;;;;;;;5110788;28;20039;-46
2022/01/11 03:18:00;;;;;;;172.13;46.58;;;;;;;;;;5110504;28;20399;-47
2022/01/11 03:20:30;;;;;;;139.45;41.00;;;;;;;;;;5110898;28;20118;-46
2022/01/11 03:22:59;;;;;;;122.40;36.38;;;;;;;;;;5110284;28;20051;-46
2022/01/11 03:25:25;;;;;;;131.65;35.22;;;;;;;;;;5110373;28;20109;-47
2022/01/11 03:27:52;;;;;;;160.75;39.22;;;;;;;;;;5111493;28;20074;-46
2022/01/11 03:30:18;;;;;;;103.93;34.08;;;;;;;;;;5114069;28;20036;-46
2022/01/11 03:32:45;;;;;;;156.32;34.85;;;;;;;;;;5114241;28;20039;-47
2022/01/11 03:35:13;;;;;;;115.57;33.97;;;;;;;;;;5114042;28;20036;-47
2022/01/11 03:37:50;;;;;;;110.07;35.78;;;;;;;;;;5114085;28;20067;-46
2022/01/11 03:40:17;;;;;;;102.05;31.23;;;;;;;;;;5113985;28;20040;-46
2022/01/11 03:42:44;;;;;;;134.85;38.53;;;;;;;;;;5113810;28;20036;-46
2022/01/11 03:45:13;;;;;;;103.25;33.10;;;;;;;;;;5114084;28;20047;-46
2022/01/11 03:47:44;;;;;;;88.63;29.92;;;;;;;;;;5113935;28;20477;-47
2022/01/11 03:50:11;;;;;;;116.70;35.03;;;;;;;;;;5113862;28;20043;-46
2022/01/11 03:52:44;;;;;;;83.80;32.28;;;;;;;;;;5113674;28;20038;-46
2022/01/11 03:55:12;;;;;;;101.05;34.72;;;;;;;;;;5114202;28;20503;-46
2022/01/11 03:57:40;;;;;;;97.85;33.08;;;;;;;;;;5113959;28;20499;-46
2022/01/11 04:00:11;;;;;;;110.05;33.17;;;;;;;;;;5113813;28;20412;-46
2022/01/11 04:02:40;;;;;;;179.57;48.13;;;;;;;;;;5113220;28;20044;-46
2022/01/11 04:05:11;;;;;;;93.82;33.20;;;;;;;;;;5095070;28;20075;-49
2022/01/11 04:07:38;;;;;;;119.40;37.88;;;;;;;;;;5113457;28;20044;-47
2022/01/11 04:10:04;;;;;;;117.03;40.53;;;;;;;;;;5113680;28;20040;-47
2022/01/11 04:12:30;;;;;;;105.20;38.63;;;;;;;;;;5113462;28;20036;-46
2022/01/11 04:14:59;;;;;;;73.95;32.22;;;;;;;;;;5113458;28;20040;-46
2022/01/11 04:17:25;;;;;;;81.20;33.20;;;;;;;;;;5113151;28;20128;-46
2022/01/11 04:19:52;;;;;;;127.18;39.58;;;;;;;;;;5113396;28;20071;-46
2022/01/11 04:22:19;;;;;;;113.25;39.33;;;;;;;;;;5094441;28;20400;-47
2022/01/11 04:24:47;;;;;;;79.65;36.17;;;;;;;;;;5113128;28;20542;-44
2022/01/11 04:27:13;;;;;;;89.22;37.55;;;;;;;;;;5094578;28;20066;-45
2022/01/11 04:29:39;;;;;;;148.95;46.63;;;;;;;;;;5113030;28;20097;-44
2022/01/11 04:32:09;;;;;;;122.20;39.80;;;;;;;;;;5112594;28;20031;-44
2022/01/11 04:34:35;;;;;;;191.40;49.78;;;;;;;;;;5113127;28;20044;-45
2022/01/11 04:37:04;;;;;;;183.10;53.10;;;;;;;;;;5112987;28;20109;-44
2022/01/11 04:39:30;;;;;;;104.35;39.28;;;;;;;;;;5112109;28;20043;-44
2022/01/11 04:41:59;;;;;;;140.52;45.80;;;;;;;;;;5112976;28;20035;-45
2022/01/11 04:44:25;;;;;;;131.05;44.28;;;;;;;;;;5112597;28;20054;-44
2022/01/11 04:46:51;;;;;;;157.80;43.50;;;;;;;;;;5112660;28;20071;-45
2022/01/11 04:49:17;;;;;;;148.30;39.38;;;;;;;;;;5112190;28;20520;-44
2022/01/11 04:51:43;;;;;;;188.82;49.70;;;;;;;;;;5112486;28;20039;-45
2022/01/11 04:54:12;;;;;;;108.70;40.33;;;;;;;;;;5112304;28;20051;-44
2022/01/11 04:56:38;;;;;;;169.18;46.40;;;;;;;;;;5112820;28;20168;-44
2022/01/11 04:59:07;;;;;;;99.18;40.28;;;;;;;;;;5112697;28;20046;-44
2022/01/11 05:01:36;;;;;;;107.15;42.67;;;;;;;;;;5112242;28;20039;-46
2022/01/11 05:04:02;;;;;;;105.50;40.17;;;;;;;;;;5112268;28;20544;-45
2022/01/11 05:06:28;;;;;;;116.07;45.47;;;;;;;;;;5112254;28;20078;-45
2022/01/11 05:08:54;;;;;;;131.55;44.47;;;;;;;;;;5112892;28;20493;-44
2022/01/11 05:11:23;;;;;;;163.43;54.08;;;;;;;;;;5112682;28;20036;-44
2022/01/11 05:13:49;;;;;;;155.48;52.30;;;;;;;;;;5112630;28;20504;-44
2022/01/11 05:16:18;;;;;;;119.38;44.75;;;;;;;;;;5112689;28;20043;-44
2022/01/11 05:18:44;;;;;;;138.75;47.45;;;;;;;;;;5112133;28;20039;-45
2022/01/11 05:21:10;;;;;;;133.75;48.38;;;;;;;;;;5112484;28;20039;-47
2022/01/11 05:23:36;;;;;;;95.13;41.95;;;;;;;;;;5110965;28;20046;-45
2022/01/11 05:26:05;;;;;;;132.60;48.63;;;;;;;;;;5111340;28;20078;-46
2022/01/11 05:28:33;;;;;;;113.95;47.03;;;;;;;;;;5111229;28;20115;-45
2022/01/11 05:30:59;;;;;;;154.40;50.15;;;;;;;;;;5111504;28;20373;-46
2022/01/11 05:33:25;;;;;;;143.30;49.30;;;;;;;;;;5111108;28;20051;-46
2022/01/11 05:35:54;;;;;;;121.13;48.95;;;;;;;;;;5111211;28;20042;-44
2022/01/11 05:38:20;;;;;;;104.55;44.95;;;;;;;;;;5111146;28;20039;-46
2022/01/11 05:40:50;;;;;;;118.40;45.40;;;;;;;;;;5110777;28;20036;-46
2022/01/11 05:43:16;;;;;;;124.53;48.63;;;;;;;;;;5110505;28;20040;-47
2022/01/11 05:45:42;;;;;;;128.95;50.17;;;;;;;;;;5110533;28;20047;-46
2022/01/11 05:48:08;;;;;;;121.95;49.05;;;;;;;;;;5110915;28;20035;-45
2022/01/11 05:50:35;;;;;;;95.43;44.08;;;;;;;;;;5109359;28;20042;-46
2022/01/11 05:53:05;;;;;;;144.00;54.42;;;;;;;;;;5098758;28;20039;-45
2022/01/11 05:55:34;;;;;;;174.75;52.47;;;;;;;;;;5104178;28;20083;-45
2022/01/11 05:58:03;;;;;;;167.02;53.72;;;;;;;;;;5091142;28;20414;-45
2022/01/11 06:00:30;;;;;;;198.35;58.40;;;;;;;;;;5101749;28;20044;-45
2022/01/11 06:02:58;;;;;;;205.63;58.40;;;;;;;;;;5101174;28;20036;-45
2022/01/11 06:05:25;;;;;;;120.85;46.72;;;;;;;;;;5111216;28;20047;-47
2022/01/11 06:07:51;;;;;;;98.30;43.97;;;;;;;;;;5111467;28;20039;-45
2022/01/11 06:10:18;;;;;;;103.45;42.72;;;;;;;;;;5111135;28;20044;-44
2022/01/11 06:12:44;;;;;;;227.73;59.75;;;;;;;;;;5093269;28;20512;-45
2022/01/11 06:15:10;;;;;;;200.63;54.13;;;;;;;;;;5110468;28;20127;-45
2022/01/11 06:17:36;;;;;;;132.95;48.45;;;;;;;;;;5090772;28;20063;-45
2022/01/11 06:20:02;;;;;;;102.55;45.60;;;;;;;;;;5071971;28;20174;-49
2022/01/11 06:22:28;;;;;;;106.25;46.75;;;;;;;;;;5098675;28;20031;-44
2022/01/11 06:25:01;;;;;;;132.27;51.15;;;;;;;;;;5106652;28;20039;-45
2022/01/11 06:27:28;;;;;;;106.97;45.40;;;;;;;;;;5104278;28;20413;-45
2022/01/11 06:30:16;;;;;;;104.18;46.33;;;;;;;;;;5108788;28;20027;-45
2022/01/11 06:32:48;;;;;;;123.97;50.38;;;;;;;;;;5097776;28;20036;-46
2022/01/11 06:35:21;;;;;;;125.20;50.65;;;;;;;;;;5089967;28;20405;-45
2022/01/11 06:38:07;;;;;;;104.38;46.42;;;;;;;;;;5087456;28;20048;-46
2022/01/11 06:40:33;;;;;;;119.38;51.67;;;;;;;;;;5090729;28;20051;-46
2022/01/11 06:43:06;;;;;;;83.88;42.05;;;;;;;;;;5085541;28;20386;-46
2022/01/11 06:45:36;;;;;;;88.30;40.15;;;;;;;;;;5101323;28;20036;-46
2022/01/11 06:48:02;;;;;;;83.68;40.67;;;;;;;;;;5107202;28;20048;-45
2022/01/11 06:50:34;;;;;;;92.47;44.33;;;;;;;;;;5107096;28;20215;-45
2022/01/11 06:53:01;;;;;;;86.55;40.85;;;;;;;;;;5107511;28;20067;-45
2022/01/11 06:55:32;;;;;;;96.35;46.15;;;;;;;;;;5107275;28;20036;-45
2022/01/11 06:58:01;;;;;;;77.28;38.47;;;;;;;;;;5110504;28;20399;-44
2022/01/11 07:00:27;;;;;;;78.53;38.78;;;;;;;;;;5111097;28;20395;-45
2022/01/11 07:02:53;;;;;;;72.40;37.20;;;;;;;;;;5111895;28;20044;-47
2022/01/11 07:05:19;;;;;;;74.65;39.20;;;;;;;;;;5115177;28;20127;-45
2022/01/11 07:07:51;;;;;;;74.25;37.35;;;;;;;;;;5114972;28;20451;-45
2022/01/11 07:10:17;;;;;;;78.35;39.92;;;;;;;;;;5114984;28;20111;-46
2022/01/11 07:12:43;;;;;;;72.07;37.45;;;;;;;;;;5096433;28;20088;-47
2022/01/11 07:15:10;;;;;;;74.35;36.03;;;;;;;;;;5113667;28;20043;-45
2022/01/11 07:17:36;;;;;;;76.95;36.70;;;;;;;;;;5113359;28;20446;-45
2022/01/11 07:20:02;;;;;;;72.85;35.25;;;;;;;;;;5114194;28;20055;-45
2022/01/11 07:22:28;;;;;;;66.07;34.83;;;;;;;;;;5114647;28;20503;-45
2022/01/11 07:24:55;;;;;;;59.30;33.03;;;;;;;;;;5095838;28;20040;-52
2022/01/11 07:27:21;;;;;;;63.15;30.13;;;;;;;;;;5094490;28;20058;-45
2022/01/11 07:29:50;;;;;;;58.15;30.23;;;;;;;;;;5094064;28;20607;-45
2022/01/11 07:32:16;;;;;;;57.13;29.33;;;;;;;;;;5094129;28;20040;-45
2022/01/11 07:34:42;;;;;;;49.33;24.48;;;;;;;;;;5094327;28;20091;-44
2022/01/11 07:37:08;;;;;;;53.30;27.70;;;;;;;;;;5094081;28;20079;-45
2022/01/11 07:39:34;;;;;;;53.35;26.75;;;;;;;;;;5094388;28;20036;-44
2022/01/11 07:42:00;;;;;;;61.25;28.30;;;;;;;;;;5094066;28;20040;-46
2022/01/11 07:44:26;;;;;;;55.78;27.75;;;;;;;;;;5093595;28;20058;-45
2022/01/11 07:46:53;;;;;;;52.05;27.05;;;;;;;;;;5094197;28;20402;-48
2022/01/11 07:49:20;;;;;;;51.58;25.77;;;;;;;;;;5093718;28;20046;-47
2022/01/11 07:51:46;;;;;;;49.63;26.35;;;;;;;;;;5093024;28;20040;-46
2022/01/11 07:54:12;;;;;;;49.78;24.27;;;;;;;;;;5093014;28;20051;-46
2022/01/11 07:56:38;;;;;;;49.42;25.90;;;;;;;;;;5093029;28;20036;-47
2022/01/11 07:59:07;;;;;;;51.40;27.80;;;;;;;;;;5093579;28;20505;-47
2022/01/11 08:01:33;;;;;;;47.80;24.58;;;;;;;;;;5075397;28;20061;-51
2022/01/11 08:03:59;;;;;;;49.75;24.38;;;;;;;;;;5093815;28;20040;-46
2022/01/11 08:06:26;;;;;;;50.95;25.98;;;;;;;;;;5093229;28;20040;-47
2022/01/11 08:08:52;;;;;;;51.42;26.20;;;;;;;;;;5092859;28;20113;-47
2022/01/11 08:11:18;;;;;;;51.30;26.00;;;;;;;;;;5091924;28;20047;-48
2022/01/11 08:13:47;;;;;;;50.58;25.73;;;;;;;;;;5091208;28;20043;-46
2022/01/11 08:16:13;;;;;;;45.22;24.88;;;;;;;;;;5100286;28;20118;-46
2022/01/11 08:18:39;;;;;;;49.67;25.80;;;;;;;;;;5097627;28;20565;-48
2022/01/11 08:21:06;;;;;;;47.47;25.00;;;;;;;;;;5105870;28;20039;-47
2022/01/11 08:23:33;;;;;;;50.03;27.35;;;;;;;;;;5107765;28;20036;-46
2022/01/11 08:25:59;;;;;;;49.53;26.00;;;;;;;;;;5112627;28;20123;-47
2022/01/11 08:28:28;;;;;;;45.28;23.05;;;;;;;;;;5113034;28;20035;-46
2022/01/11 08:30:57;;;;;;;43.83;25.05;;;;;;;;;;5112999;28;20046;-47
2022/01/11 08:33:26;;;;;;;46.53;24.27;;;;;;;;;;5112530;28;20114;-48
2022/01/11 08:35:55;;;;;;;44.30;24.50;;;;;;;;;;5112955;28;20032;-48
2022/01/11 08:38:21;;;;;;;42.55;25.08;;;;;;;;;;5110926;28;20039;-46
2022/01/11 08:40:47;;;;;;;48.50;26.98;;;;;;;;;;5091908;28;20047;-48
2022/01/11 08:43:16;;;;;;;48.22;27.02;;;;;;;;;;5073553;28;20047;-47
2022/01/11 08:45:42;;;;;;;45.50;27.02;;;;;;;;;;5074743;28;20412;-45
2022/01/11 08:48:11;;;;;;;41.55;22.23;;;;;;;;;;5074589;28;20404;-47
2022/01/11 08:50:37;;;;;;;36.25;21.90;;;;;;;;;;5092645;28;20408;-45
2022/01/11 08:53:03;;;;;;;41.08;22.45;;;;;;;;;;5092520;28;20127;-46
2022/01/11 08:55:29;;;;;;;36.03;21.27;;;;;;;;;;5092575;28;20055;-45
2022/01/11 08:57:55;;;;;;;37.25;22.92;;;;;;;;;;5092361;28;20401;-48
2022/01/11 09:00:23;;;;;;;33.97;20.75;;;;;;;;;;5092852;28;20090;-48
2022/01/11 09:02:53;;;;;;;36.28;20.38;;;;;;;;;;5092601;28;20050;-50
2022/01/11 09:05:22;;;;;;;32.58;20.05;;;;;;;;;;5057234;28;20105;-48
2022/01/11 09:07:51;;;;;;;37.78;20.70;;;;;;;;;;5092610;28;20043;-47
2022/01/11 09:10:20;;;;;;;30.77;19.60;;;;;;;;;;5092460;28;20032;-48
2022/01/11 09:12:46;;;;;;;31.67;18.98;;;;;;;;;;5074189;28;20370;-48
2022/01/11 09:15:13;;;;;;;31.42;19.48;;;;;;;;;;5091834;28;20043;-49
2022/01/11 09:17:39;;;;;;;28.23;18.20;;;;;;;;;;5092447;28;20044;-47
2022/01/11 09:20:06;;;;;;;31.98;18.15;;;;;;;;;;5092210;28;20489;-47
2022/01/11 09:22:35;;;;;;;26.52;17.67;;;;;;;;;;5092331;28;20430;-45
2022/01/11 09:25:04;;;;;;;27.42;17.77;;;;;;;;;;5091380;28;20039;-47
2022/01/11 09:27:30;;;;;;;27.60;19.02;;;;;;;;;;5091928;28;20490;-48
2022/01/11 09:29:56;;;;;;;28.05;16.80;;;;;;;;;;5091840;28;20174;-46
2022/01/11 09:32:25;;;;;;;27.98;16.98;;;;;;;;;;5091515;28;20028;-46
2022/01/11 09:34:51;;;;;;;26.95;16.75;;;;;;;;;;5094650;28;20378;-47
2022/01/11 09:37:17;;;;;;;26.08;16.25;;;;;;;;;;5095148;28;20043;-44
2022/01/11 09:39:43;;;;;;;26.88;16.58;;;;;;;;;;5102789;28;20036;-45
2022/01/11 09:42:09;;;;;;;25.92;16.83;;;;;;;;;;5112595;28;20035;-46
2022/01/11 09:44:38;;;;;;;24.38;15.50;;;;;;;;;;5094196;28;20075;-46
2022/01/11 09:47:06;;;;;;;25.73;15.98;;;;;;;;;;5112920;28;20044;-45
2022/01/11 09:49:32;;;;;;;23.52;15.90;;;;;;;;;;5094759;28;20036;-45
2022/01/11 09:52:00;;;;;;;25.98;15.73;;;;;;;;;;5109828;28;20073;-45
2022/01/11 09:54:26;;;;;;;25.50;15.90;;;;;;;;;;5107022;28;20075;-45
2022/01/11 09:56:53;;;;;;;21.08;15.77;;;;;;;;;;5113254;28;20075;-45
2022/01/11 09:59:19;;;;;;;22.05;15.13;;;;;;;;;;5112171;28;20122;-46
2022/01/11 10:01:45;;;;;;;20.77;15.05;;;;;;;;;;5112411;28;20040;-46
2022/01/11 10:04:13;;;;;;;20.00;14.77;;;;;;;;;;5112350;28;20437;-48
2022/01/11 10:06:42;;;;;;;21.83;14.65;;;;;;;;;;5112717;28;20040;-47
2022/01/11 10:09:21;;;;;;;21.33;14.75;;;;;;;;;;5112810;28;20046;-46
2022/01/11 10:11:49;;;;;;;22.00;15.55;;;;;;;;;;5112214;28;20035;-48
2022/01/11 10:14:35;;;;;;;21.75;14.07;;;;;;;;;;5112260;28;20374;-46
2022/01/11 10:17:04;;;;;;;20.73;14.50;;;;;;;;;;5111332;28;20042;-45
2022/01/11 10:19:31;;;;;;;23.83;14.75;;;;;;;;;;5077358;28;20044;-48
2022/01/11 10:21:57;;;;;;;24.73;15.65;;;;;;;;;;5078667;28;20035;-45
2022/01/11 10:24:26;;;;;;;24.98;16.85;;;;;;;;;;5072247;28;20067;-47
2022/01/11 10:26:56;;;;;;;23.02;15.38;;;;;;;;;;5089379;28;20482;-48
2022/01/11 10:29:27;;;;;;;22.52;14.43;;;;;;;;;;5089304;28;20055;-46
2022/01/11 10:31:53;;;;;;;25.20;15.32;;;;;;;;;;5089556;28;20047;-46
2022/01/11 10:34:28;;;;;;;23.08;16.00;;;;;;;;;;5071792;28;20051;-47
2022/01/11 10:36:54;;;;;;;23.27;15.80;;;;;;;;;;5089674;28;20067;-48
2022/01/11 10:39:29;;;;;;;24.80;14.48;;;;;;;;;;5090889;28;20059;-49
2022/01/11 10:41:56;;;;;;;22.33;15.32;;;;;;;;;;5090742;28;20405;-46
2022/01/11 10:44:41;;;;;;;23.50;15.73;;;;;;;;;;5090655;28;20044;-47
2022/01/11 10:47:07;;;;;;;27.20;15.82;;;;;;;;;;5090721;28;20040;-46
2022/01/11 10:49:35;;;;;;;23.73;16.33;;;;;;;;;;5091084;28;20046;-46
2022/01/11 10:52:23;;;;;;;22.23;15.20;;;;;;;;;;5090655;28;20051;-46
2022/01/11 10:54:51;;;;;;;25.58;15.98;;;;;;;;;;5091024;28;20389;-46
2022/01/11 10:57:18;;;;;;;25.90;16.20;;;;;;;;;;5090346;28;20149;-46
2022/01/11 10:59:44;;;;;;;22.55;14.65;;;;;;;;;;5091204;28;20481;-46
2022/01/11 11:02:13;;;;;;;23.20;15.82;;;;;;;;;;5090808;28;20119;-46
2022/01/11 11:04:40;;;;;;;24.88;15.50;;;;;;;;;;5091360;28;20044;-47
2022/01/11 11:07:13;;;;;;;22.42;14.40;;;;;;;;;;5091392;28;20123;-46
2022/01/11 11:09:50;;;;;;;23.45;14.05;;;;;;;;;;5091199;28;20125;-48
2022/01/11 11:12:17;;;;;;;26.73;15.27;;;;;;;;;;5090712;28;20044;-47
2022/01/11 11:14:54;;;;;;;24.02;15.50;;;;;;;;;;5091653;28;20443;-50
2022/01/11 11:17:34;;;;;;;25.40;15.88;;;;;;;;;;5091016;28;20040;-47
2022/01/11 11:20:01;;;;;;;25.13;15.90;;;;;;;;;;5091047;28;20101;-47
2022/01/11 11:22:28;;;;;;;22.75;14.43;;;;;;;;;;5072122;28;20055;-51
2022/01/11 11:24:54;;;;;;;19.05;13.48;;;;;;;;;;5090754;28;20044;-48
2022/01/11 11:27:22;;;;;;;22.13;13.95;;;;;;;;;;5090797;28;20132;-46
2022/01/11 11:29:48;;;;;;;22.35;13.85;;;;;;;;;;5090036;28;20080;-47
2022/01/11 11:32:18;;;;;;;23.17;15.43;;;;;;;;;;5089265;28;20043;-46
2022/01/11 11:34:48;;;;;;;21.77;14.77;;;;;;;;;;5088989;28;20051;-46
2022/01/11 11:37:16;;;;;;;21.63;15.00;;;;;;;;;;5088847;28;20044;-46
2022/01/11 11:39:43;;;;;;;19.83;14.30;;;;;;;;;;5072358;28;20047;-48
2022/01/11 11:42:10;;;;;;;22.00;14.32;;;;;;;;;;5090415;28;20051;-46
2022/01/11 11:44:43;;;;;;;22.05;13.88;;;;;;;;;;5090206;28;20047;-49
2022/01/11 11:47:09;;;;;;;20.60;13.43;;;;;;;;;;5091540;28;20040;-49
2022/01/11 11:49:46;;;;;;;20.30;14.43;;;;;;;;;;5100991;28;20071;-48
2022/01/11 11:52:20;;;;;;;23.00;14.27;;;;;;;;;;5107506;28;20085;-47
2022/01/11 11:54:49;;;;;;;20.55;13.98;;;;;;;;;;5114023;28;20031;-47
2022/01/11 11:57:16;;;;;;;25.08;14.75;;;;;;;;;;5111897;28;20042;-47
2022/01/11 11:59:50;;;;;;;24.90;14.32;;;;;;;;;;5112455;28;20050;-48
2022/01/11 12:02:16;;;;;;;;;;;;;;;;;;5096823;28;20114;-47
2022/01/11 12:04:45;;;;;;;20.48;13.57;;;;;;;;;;5114518;28;20020;-50
2022/01/11 12:07:33;;;;;;;20.70;13.55;;;;;;;;;;5114906;28;20093;-46
2022/01/11 12:10:00;;;;;;;21.48;12.88;;;;;;;;;;5113880;28;20040;-48
2022/01/11 12:12:40;;;;;;;21.25;14.13;;;;;;;;;;5094542;28;20062;-50
2022/01/11 12:15:31;;;;;;;22.25;14.88;;;;;;;;;;5100569;28;20081;-45
2022/01/11 12:18:00;;;;;;;20.40;13.48;;;;;;;;;;5102051;28;20049;-47
2022/01/11 12:20:46;;;;;;;23.30;13.95;;;;;;;;;;5093949;28;20044;-46
2022/01/11 12:23:24;;;;;;;18.83;13.68;;;;;;;;;;5101145;28;20036;-50
2022/01/11 12:25:51;;;;;;;18.92;13.68;;;;;;;;;;5096902;28;20051;-50
2022/01/11 12:28:18;;;;;;;20.30;13.32;;;;;;;;;;5104301;28;20442;-47
2022/01/11 12:30:45;;;;;;;23.63;14.00;;;;;;;;;;5096729;28;20419;-46
2022/01/11 12:33:11;;;;;;;22.75;14.85;;;;;;;;;;5095503;28;20070;-47
2022/01/11 12:35:55;;;;;;;22.10;13.55;;;;;;;;;;5093772;28;20040;-48
2022/01/11 12:38:22;;;;;;;20.80;13.45;;;;;;;;;;5092321;28;20119;-50
2022/01/11 12:40:48;;;;;;;22.35;13.55;;;;;;;;;;5073924;28;20126;-46
2022/01/11 12:43:43;;;;;;;22.70;13.00;;;;;;;;;;5091996;28;20432;-47
2022/01/11 12:46:09;;;;;;;;;;;;;;;;;;5092801;28;20513;-48
2022/01/11 12:48:48;;;;;;;20.50;13.13;;;;;;;;;;5092067;28;19916;-47
2022/01/11 12:51:35;;;;;;;23.08;13.68;;;;;;;;;;5091852;28;20550;-48
2022/01/11 12:54:20;;;;;;;22.58;13.75;;;;;;;;;;5091777;28;20062;-47
2022/01/11 12:56:54;;;;;;;23.33;14.18;;;;;;;;;;5091413;28;20068;-49
2022/01/11 12:59:20;;;;;;;23.17;14.52;;;;;;;;;;5071952;28;20115;-48
2022/01/11 13:02:19;;;;;;;21.30;13.88;;;;;;;;;;5108688;28;20105;-50
2022/01/11 13:04:50;;;;;;;19.45;13.73;;;;;;;;;;5095369;28;20051;-51
2022/01/11 13:07:17;;;;;;;21.30;13.55;;;;;;;;;;5112611;28;20054;-47
2022/01/11 13:09:45;;;;;;;21.95;14.13;;;;;;;;;;5094201;28;20067;-50
2022/01/11 13:12:12;;;;;;;20.58;13.95;;;;;;;;;;5112885;28;20481;-47
2022/01/11 13:14:43;;;;;;;23.08;14.13;;;;;;;;;;5092463;28;20047;-47
2022/01/11 13:17:09;;;;;;;22.63;13.90;;;;;;;;;;5110314;28;20032;-49
2022/01/11 13:19:41;;;;;;;21.73;13.63;;;;;;;;;;5094683;28;20035;-47
2022/01/11 13:22:11;;;;;;;22.88;13.40;;;;;;;;;;5094413;28;20079;-47
2022/01/11 13:24:46;;;;;;;25.65;14.13;;;;;;;;;;5112615;28;20085;-50
2022/01/11 13:27:13;;;;;;;22.42;13.10;;;;;;;;;;5112771;28;20039;-47
2022/01/11 13:29:40;;;;;;;22.20;13.07;;;;;;;;;;5115079;27;20484;-48
2022/01/11 13:32:07;;;;;;;26.13;14.55;;;;;;;;;;5112096;28;20032;-48
2022/01/11 13:34:33;;;;;;;24.08;14.45;;;;;;;;;;5112446;28;20095;-46
2022/01/11 13:37:00;;;;;;;22.90;14.05;;;;;;;;;;5112396;28;20103;-47
2022/01/11 13:39:34;;;;;;;24.77;14.30;;;;;;;;;;5112021;28;20058;-46
2022/01/11 13:42:01;;;;;;;22.00;13.70;;;;;;;;;;5111717;28;20050;-45
2022/01/11 13:44:29;;;;;;;21.88;13.05;;;;;;;;;;5110971;28;20039;-45
2022/01/11 13:47:04;;;;;;;28.50;15.23;;;;;;;;;;5093643;28;20049;-47
2022/01/11 13:49:33;;;;;;;27.08;14.27;;;;;;;;;;5112469;28;20575;-47
2022/01/11 13:52:00;;;;;;;28.00;14.85;;;;;;;;;;5093419;28;20032;-46
2022/01/11 13:54:33;;;;;;;25.85;13.55;;;;;;;;;;5112184;28;20039;-46
2022/01/11 13:57:01;;;;;;;24.13;14.67;;;;;;;;;;5111726;28;20059;-46
2022/01/11 13:59:29;;;;;;;27.58;15.35;;;;;;;;;;5111987;28;20122;-45
2022/01/11 14:02:22;;;;;;;29.77;16.10;;;;;;;;;;5111890;28;20043;-46
2022/01/11 14:04:52;;;;;;;26.35;15.15;;;;;;;;;;5106977;28;20518;-51
2022/01/11 14:07:24;;;;;;;27.95;14.50;;;;;;;;;;5111945;28;20044;-47
2022/01/11 14:09:54;;;;;;;28.55;15.77;;;;;;;;;;5111574;28;20078;-46
2022/01/11 14:12:30;;;;;;;26.88;14.32;;;;;;;;;;5111537;28;20031;-46
2022/01/11 14:15:00;;;;;;;28.25;15.15;;;;;;;;;;5111511;28;20043;-46
2022/01/11 14:17:30;;;;;;;33.20;16.58;;;;;;;;;;5111839;28;20050;-45
2022/01/11 14:20:01;;;;;;;29.27;15.45;;;;;;;;;;5093544;28;20446;-46
2022/01/11 14:22:36;;;;;;;28.35;15.07;;;;;;;;;;5111165;28;20039;-46
2022/01/11 14:25:02;;;;;;;28.65;15.07;;;;;;;;;;5111154;28;20217;-47